Tar Heel, NC (28392)

2:41 PM EDT op 27 augustus 2016 (GMT -0400)
Cape Owen Manor | | Change Station

Hoogte 151 ft 34.69 °N, 78.69 °W | Updated 22 seconds ago

Mostly Cloudy
Merendeels bewolkt
99.3 °F
Voelt als 114 °F
N
1.7
Wind Variabel Wind van ZO

Vandaag
Hoog -- | Laag -- °F
--% Kans op neerslag
Gisteren
Hoog -- | Laag -- °F
Precip. -- inches
Druk 30.08 inches
Zicht 10.0 mijlen
Wolken Gering 4300 ft
Merendeels bewolkt 5500 ft
Warmteindex 114 °F
Dauwpunt 76 °F
Vochtigheid 48%
Neerslag 0.00 inches
Dikte sneeuw Niet beschikbaar.
6:44 AM 7:47 PM
Afnemende halvemaan, 22% visible
METAR KLBT 271754Z AUTO 13008KT 10SM FEW043 BKN055 34/23 A3008 RMK AO2 SLP185 T03440228 10344 20239 58009
Druk 30.08 inches
Zicht 10.0 mijlen
Wolken Gering 4300 ft
Merendeels bewolkt 5500 ft
Warmteindex 114 °F
Dauwpunt 76 °F
Vochtigheid 48%
Neerslag 0.00 inches
Dikte sneeuw Niet beschikbaar.
6:44 AM 7:47 PM
Afnemende halvemaan, 22% visible
METAR KLBT 271754Z AUTO 13008KT 10SM FEW043 BKN055 34/23 A3008 RMK AO2 SLP185 T03440228 10344 20239 58009

10-Day Weather Forecast

Almanac

Astronomie

Aug. 27, 2016 Opkomst Ondergang
Werkelijke tijd
Burgerlijke schemering
Nautische schemering
Astronomische schemering
Maan
Golflengte van het zichtbare licht
Daglengte
Tomorrow will be .
, % of the Moon is Illuminated

Extremen vandaag

State Highs State Lows

Community

WunderPhotos

Upload Photos

1,935,399 foto’s ge-upload!

WunderBlog® & News

Nearby

Luchtkwaliteit

  Luchtkwaliteit LK-index Verontreinigende stof
Not available.

Dikte sneeuw

Station Depth Geometrische hoogte

Aardbevingen

Stad Distance Mag. Time & Date
Minimum magnitude displayed is 2.5.

Watertemperatuur langs de kust

Plaats Temperatuur

Stations

Nabije weerstations

Locatie station Temp. Gevoelstemperatuur Dauwpunt Vochtigheid Wind Precip. Hoogte Geactualiseerd Type
                   

Watches & Warnings

There are currently no watches in effect.